sensor_id;sensor_type;location;lat;lon;timestamp;P1;durP1;ratioP1;P2;durP2;ratioP2
71288;SDS011;59068;52.502;9.860;2023-08-06T00:01:15;2.40;;;2.20;;
71288;SDS011;59068;52.502;9.860;2023-08-06T00:03:43;2.30;;;2.10;;
71288;SDS011;59068;52.502;9.860;2023-08-06T00:06:10;2.20;;;2.00;;
71288;SDS011;59068;52.502;9.860;2023-08-06T00:08:36;2.83;;;2.50;;
71288;SDS011;59068;52.502;9.860;2023-08-06T00:11:03;2.57;;;2.37;;
71288;SDS011;59068;52.502;9.860;2023-08-06T00:13:29;3.57;;;2.87;;
71288;SDS011;59068;52.502;9.860;2023-08-06T00:16:09;2.57;;;2.37;;
71288;SDS011;59068;52.502;9.860;2023-08-06T00:18:36;2.77;;;2.57;;
71288;SDS011;59068;52.502;9.860;2023-08-06T00:21:02;2.90;;;2.70;;
71288;SDS011;59068;52.502;9.860;2023-08-06T00:23:29;2.70;;;2.47;;
71288;SDS011;59068;52.502;9.860;2023-08-06T00:25:56;2.93;;;2.67;;
71288;SDS011;59068;52.502;9.860;2023-08-06T00:28:22;2.60;;;2.40;;
71288;SDS011;59068;52.502;9.860;2023-08-06T00:30:52;2.70;;;2.50;;
71288;SDS011;59068;52.502;9.860;2023-08-06T00:33:20;2.80;;;2.60;;
71288;SDS011;59068;52.502;9.860;2023-08-06T00:35:47;2.80;;;2.60;;
71288;SDS011;59068;52.502;9.860;2023-08-06T00:38:13;3.00;;;2.80;;
71288;SDS011;59068;52.502;9.860;2023-08-06T00:40:40;2.60;;;2.40;;
71288;SDS011;59068;52.502;9.860;2023-08-06T00:43:06;2.50;;;2.30;;
71288;SDS011;59068;52.502;9.860;2023-08-06T00:45:33;3.30;;;3.10;;
71288;SDS011;59068;52.502;9.860;2023-08-06T00:48:01;2.90;;;2.70;;
71288;SDS011;59068;52.502;9.860;2023-08-06T00:50:29;3.00;;;2.80;;
71288;SDS011;59068;52.502;9.860;2023-08-06T00:52:56;2.90;;;2.70;;
71288;SDS011;59068;52.502;9.860;2023-08-06T00:55:23;2.43;;;2.33;;
71288;SDS011;59068;52.502;9.860;2023-08-06T00:57:49;2.57;;;2.37;;
71288;SDS011;59068;52.502;9.860;2023-08-06T01:00:17;3.10;;;2.80;;
71288;SDS011;59068;52.502;9.860;2023-08-06T01:02:44;3.20;;;2.83;;
71288;SDS011;59068;52.502;9.860;2023-08-06T01:05:12;2.87;;;2.67;;
71288;SDS011;59068;52.502;9.860;2023-08-06T01:07:43;2.50;;;2.30;;
71288;SDS011;59068;52.502;9.860;2023-08-06T01:10:23;2.73;;;2.53;;
71288;SDS011;59068;52.502;9.860;2023-08-06T01:12:55;3.10;;;2.80;;
71288;SDS011;59068;52.502;9.860;2023-08-06T01:15:28;3.13;;;2.93;;
71288;SDS011;59068;52.502;9.860;2023-08-06T01:17:55;3.10;;;2.90;;
71288;SDS011;59068;52.502;9.860;2023-08-06T01:20:22;2.70;;;2.50;;
71288;SDS011;59068;52.502;9.860;2023-08-06T01:22:54;3.10;;;2.80;;
71288;SDS011;59068;52.502;9.860;2023-08-06T01:25:21;3.10;;;2.90;;
71288;SDS011;59068;52.502;9.860;2023-08-06T01:27:48;2.90;;;2.70;;
71288;SDS011;59068;52.502;9.860;2023-08-06T01:30:16;2.60;;;2.40;;
71288;SDS011;59068;52.502;9.860;2023-08-06T01:32:46;2.97;;;2.40;;
71288;SDS011;59068;52.502;9.860;2023-08-06T01:35:15;2.83;;;2.63;;
71288;SDS011;59068;52.502;9.860;2023-08-06T01:37:45;4.37;;;2.73;;
71288;SDS011;59068;52.502;9.860;2023-08-06T01:40:12;2.90;;;2.70;;
71288;SDS011;59068;52.502;9.860;2023-08-06T01:42:39;3.83;;;3.13;;
71288;SDS011;59068;52.502;9.860;2023-08-06T01:45:06;2.97;;;2.77;;
71288;SDS011;59068;52.502;9.860;2023-08-06T01:47:33;2.97;;;2.50;;
71288;SDS011;59068;52.502;9.860;2023-08-06T01:50:00;2.70;;;2.50;;
71288;SDS011;59068;52.502;9.860;2023-08-06T01:52:27;2.93;;;2.73;;
71288;SDS011;59068;52.502;9.860;2023-08-06T01:54:54;2.50;;;2.30;;
71288;SDS011;59068;52.502;9.860;2023-08-06T01:57:21;2.70;;;2.50;;
71288;SDS011;59068;52.502;9.860;2023-08-06T01:59:48;3.20;;;2.70;;
71288;SDS011;59068;52.502;9.860;2023-08-06T02:02:14;3.30;;;3.00;;
71288;SDS011;59068;52.502;9.860;2023-08-06T02:04:41;3.23;;;2.97;;
71288;SDS011;59068;52.502;9.860;2023-08-06T02:07:08;3.00;;;2.80;;
71288;SDS011;59068;52.502;9.860;2023-08-06T02:09:34;2.77;;;2.57;;
71288;SDS011;59068;52.502;9.860;2023-08-06T02:12:03;4.37;;;3.13;;
71288;SDS011;59068;52.502;9.860;2023-08-06T02:14:30;3.93;;;3.63;;
71288;SDS011;59068;52.502;9.860;2023-08-06T02:16:56;5.50;;;4.87;;
71288;SDS011;59068;52.502;9.860;2023-08-06T02:19:23;5.73;;;5.00;;
71288;SDS011;59068;52.502;9.860;2023-08-06T02:21:50;5.63;;;5.10;;
71288;SDS011;59068;52.502;9.860;2023-08-06T02:24:16;5.77;;;5.17;;
71288;SDS011;59068;52.502;9.860;2023-08-06T02:26:43;5.60;;;5.07;;
71288;SDS011;59068;52.502;9.860;2023-08-06T02:29:11;6.10;;;5.60;;
71288;SDS011;59068;52.502;9.860;2023-08-06T02:31:37;5.93;;;5.40;;
71288;SDS011;59068;52.502;9.860;2023-08-06T02:34:04;6.73;;;5.73;;
71288;SDS011;59068;52.502;9.860;2023-08-06T02:36:30;6.90;;;6.20;;
71288;SDS011;59068;52.502;9.860;2023-08-06T02:38:57;7.27;;;6.30;;
71288;SDS011;59068;52.502;9.860;2023-08-06T02:41:24;7.27;;;6.57;;
71288;SDS011;59068;52.502;9.860;2023-08-06T02:43:50;6.57;;;5.87;;
71288;SDS011;59068;52.502;9.860;2023-08-06T02:46:19;6.90;;;6.30;;
71288;SDS011;59068;52.502;9.860;2023-08-06T02:48:46;6.27;;;5.67;;
71288;SDS011;59068;52.502;9.860;2023-08-06T02:51:12;7.23;;;6.57;;
71288;SDS011;59068;52.502;9.860;2023-08-06T02:53:39;7.43;;;6.70;;
71288;SDS011;59068;52.502;9.860;2023-08-06T02:56:05;8.13;;;6.70;;
71288;SDS011;59068;52.502;9.860;2023-08-06T02:58:32;7.60;;;6.83;;
71288;SDS011;59068;52.502;9.860;2023-08-06T03:00:59;7.30;;;6.60;;
71288;SDS011;59068;52.502;9.860;2023-08-06T03:03:29;8.77;;;7.00;;
71288;SDS011;59068;52.502;9.860;2023-08-06T03:05:55;9.87;;;8.27;;
71288;SDS011;59068;52.502;9.860;2023-08-06T03:08:22;9.03;;;8.03;;
71288;SDS011;59068;52.502;9.860;2023-08-06T03:10:49;9.83;;;8.70;;
71288;SDS011;59068;52.502;9.860;2023-08-06T03:13:15;9.07;;;8.03;;
71288;SDS011;59068;52.502;9.860;2023-08-06T03:15:42;9.60;;;8.23;;
71288;SDS011;59068;52.502;9.860;2023-08-06T03:18:09;9.23;;;8.13;;
71288;SDS011;59068;52.502;9.860;2023-08-06T03:20:36;10.27;;;8.47;;
71288;SDS011;59068;52.502;9.860;2023-08-06T03:23:03;9.30;;;8.27;;
71288;SDS011;59068;52.502;9.860;2023-08-06T03:25:30;11.27;;;8.63;;
71288;SDS011;59068;52.502;9.860;2023-08-06T03:27:56;10.47;;;9.37;;
71288;SDS011;59068;52.502;9.860;2023-08-06T03:30:23;10.00;;;8.73;;
71288;SDS011;59068;52.502;9.860;2023-08-06T03:32:49;10.10;;;9.00;;
71288;SDS011;59068;52.502;9.860;2023-08-06T03:35:16;11.70;;;8.93;;
71288;SDS011;59068;52.502;9.860;2023-08-06T03:37:44;9.67;;;8.77;;
71288;SDS011;59068;52.502;9.860;2023-08-06T03:40:10;9.03;;;8.13;;
71288;SDS011;59068;52.502;9.860;2023-08-06T03:42:37;9.70;;;8.70;;
71288;SDS011;59068;52.502;9.860;2023-08-06T03:45:04;9.37;;;8.47;;
71288;SDS011;59068;52.502;9.860;2023-08-06T03:47:31;9.23;;;8.33;;
71288;SDS011;59068;52.502;9.860;2023-08-06T03:49:58;10.00;;;8.70;;
71288;SDS011;59068;52.502;9.860;2023-08-06T03:52:24;10.50;;;8.80;;
71288;SDS011;59068;52.502;9.860;2023-08-06T03:54:52;8.17;;;7.47;;
71288;SDS011;59068;52.502;9.860;2023-08-06T03:57:19;9.00;;;8.17;;
71288;SDS011;59068;52.502;9.860;2023-08-06T03:59:45;9.10;;;8.20;;
71288;SDS011;59068;52.502;9.860;2023-08-06T04:02:12;8.07;;;7.23;;
71288;SDS011;59068;52.502;9.860;2023-08-06T04:04:38;9.73;;;8.20;;
71288;SDS011;59068;52.502;9.860;2023-08-06T04:07:05;8.87;;;7.97;;
71288;SDS011;59068;52.502;9.860;2023-08-06T04:09:32;10.13;;;7.83;;
71288;SDS011;59068;52.502;9.860;2023-08-06T04:12:00;8.47;;;7.47;;
71288;SDS011;59068;52.502;9.860;2023-08-06T04:14:27;8.47;;;7.57;;
71288;SDS011;59068;52.502;9.860;2023-08-06T04:16:54;8.43;;;7.60;;
71288;SDS011;59068;52.502;9.860;2023-08-06T04:19:21;9.00;;;8.10;;
71288;SDS011;59068;52.502;9.860;2023-08-06T04:21:47;9.27;;;8.23;;
71288;SDS011;59068;52.502;9.860;2023-08-06T04:24:14;9.67;;;7.77;;
71288;SDS011;59068;52.502;9.860;2023-08-06T04:26:40;9.03;;;7.50;;
71288;SDS011;59068;52.502;9.860;2023-08-06T04:29:08;8.20;;;7.40;;
71288;SDS011;59068;52.502;9.860;2023-08-06T04:31:35;9.00;;;8.10;;
71288;SDS011;59068;52.502;9.860;2023-08-06T04:34:01;8.30;;;7.40;;
71288;SDS011;59068;52.502;9.860;2023-08-06T04:36:28;10.47;;;6.30;;
71288;SDS011;59068;52.502;9.860;2023-08-06T04:38:54;7.53;;;6.83;;
71288;SDS011;59068;52.502;9.860;2023-08-06T04:41:21;9.10;;;6.57;;
71288;SDS011;59068;52.502;9.860;2023-08-06T04:43:47;7.67;;;6.63;;
71288;SDS011;59068;52.502;9.860;2023-08-06T04:46:15;7.10;;;6.27;;
71288;SDS011;59068;52.502;9.860;2023-08-06T04:48:42;7.30;;;6.47;;
71288;SDS011;59068;52.502;9.860;2023-08-06T04:51:09;8.67;;;7.77;;
71288;SDS011;59068;52.502;9.860;2023-08-06T04:53:35;8.07;;;7.27;;
71288;SDS011;59068;52.502;9.860;2023-08-06T04:56:02;8.63;;;7.77;;
71288;SDS011;59068;52.502;9.860;2023-08-06T04:58:29;7.37;;;6.60;;
71288;SDS011;59068;52.502;9.860;2023-08-06T05:00:56;8.00;;;7.20;;
71288;SDS011;59068;52.502;9.860;2023-08-06T05:03:23;7.57;;;6.77;;
71288;SDS011;59068;52.502;9.860;2023-08-06T05:05:50;8.27;;;7.47;;
71288;SDS011;59068;52.502;9.860;2023-08-06T05:08:17;8.80;;;7.90;;
71288;SDS011;59068;52.502;9.860;2023-08-06T05:10:44;7.87;;;7.03;;
71288;SDS011;59068;52.502;9.860;2023-08-06T05:13:10;10.33;;;8.30;;
71288;SDS011;59068;52.502;9.860;2023-08-06T05:15:37;8.10;;;7.30;;
71288;SDS011;59068;52.502;9.860;2023-08-06T05:18:04;11.07;;;8.73;;
71288;SDS011;59068;52.502;9.860;2023-08-06T05:20:33;8.53;;;7.30;;
71288;SDS011;59068;52.502;9.860;2023-08-06T05:23:02;8.90;;;7.30;;
71288;SDS011;59068;52.502;9.860;2023-08-06T05:25:29;9.57;;;8.53;;
71288;SDS011;59068;52.502;9.860;2023-08-06T05:27:56;11.40;;;9.47;;
71288;SDS011;59068;52.502;9.860;2023-08-06T05:30:22;12.90;;;9.40;;
71288;SDS011;59068;52.502;9.860;2023-08-06T05:32:49;10.87;;;9.77;;
71288;SDS011;59068;52.502;9.860;2023-08-06T05:35:15;13.27;;;10.03;;
71288;SDS011;59068;52.502;9.860;2023-08-06T05:37:43;10.63;;;9.53;;
71288;SDS011;59068;52.502;9.860;2023-08-06T05:40:10;11.47;;;8.93;;
71288;SDS011;59068;52.502;9.860;2023-08-06T05:42:37;10.27;;;9.17;;
71288;SDS011;59068;52.502;9.860;2023-08-06T05:45:04;9.87;;;8.70;;
71288;SDS011;59068;52.502;9.860;2023-08-06T05:47:31;11.03;;;9.80;;
71288;SDS011;59068;52.502;9.860;2023-08-06T05:49:57;10.53;;;9.23;;
71288;SDS011;59068;52.502;9.860;2023-08-06T05:52:24;11.83;;;10.03;;
71288;SDS011;59068;52.502;9.860;2023-08-06T05:54:52;11.20;;;9.83;;
71288;SDS011;59068;52.502;9.860;2023-08-06T05:57:20;12.70;;;11.10;;
71288;SDS011;59068;52.502;9.860;2023-08-06T05:59:46;14.70;;;10.87;;
71288;SDS011;59068;52.502;9.860;2023-08-06T06:02:13;13.43;;;10.83;;
71288;SDS011;59068;52.502;9.860;2023-08-06T06:04:40;14.67;;;11.77;;
71288;SDS011;59068;52.502;9.860;2023-08-06T06:07:07;13.70;;;11.70;;
71288;SDS011;59068;52.502;9.860;2023-08-06T06:09:33;14.00;;;10.50;;
71288;SDS011;59068;52.502;9.860;2023-08-06T06:12:01;14.03;;;11.70;;
71288;SDS011;59068;52.502;9.860;2023-08-06T06:14:28;13.47;;;11.17;;
71288;SDS011;59068;52.502;9.860;2023-08-06T06:16:55;12.33;;;10.90;;
71288;SDS011;59068;52.502;9.860;2023-08-06T06:19:21;11.83;;;10.27;;
71288;SDS011;59068;52.502;9.860;2023-08-06T06:21:48;11.20;;;10.03;;
71288;SDS011;59068;52.502;9.860;2023-08-06T06:24:14;15.27;;;10.77;;
71288;SDS011;59068;52.502;9.860;2023-08-06T06:26:41;10.97;;;9.87;;
71288;SDS011;59068;52.502;9.860;2023-08-06T06:29:09;13.40;;;11.43;;
71288;SDS011;59068;52.502;9.860;2023-08-06T06:31:35;10.07;;;8.83;;
71288;SDS011;59068;52.502;9.860;2023-08-06T06:34:02;8.73;;;7.93;;
71288;SDS011;59068;52.502;9.860;2023-08-06T06:36:28;10.70;;;9.60;;
71288;SDS011;59068;52.502;9.860;2023-08-06T06:38:55;11.13;;;9.77;;
71288;SDS011;59068;52.502;9.860;2023-08-06T06:41:21;10.77;;;9.20;;
71288;SDS011;59068;52.502;9.860;2023-08-06T06:43:49;10.40;;;9.30;;
71288;SDS011;59068;52.502;9.860;2023-08-06T06:46:17;9.90;;;8.90;;
71288;SDS011;59068;52.502;9.860;2023-08-06T06:48:43;10.23;;;9.10;;
71288;SDS011;59068;52.502;9.860;2023-08-06T06:51:10;9.63;;;8.60;;
71288;SDS011;59068;52.502;9.860;2023-08-06T06:53:36;9.93;;;8.90;;
71288;SDS011;59068;52.502;9.860;2023-08-06T06:56:03;9.37;;;8.33;;
71288;SDS011;59068;52.502;9.860;2023-08-06T06:58:30;10.07;;;8.43;;
71288;SDS011;59068;52.502;9.860;2023-08-06T07:00:57;7.87;;;7.07;;
71288;SDS011;59068;52.502;9.860;2023-08-06T07:03:25;8.50;;;7.67;;
71288;SDS011;59068;52.502;9.860;2023-08-06T07:05:51;8.53;;;7.73;;
71288;SDS011;59068;52.502;9.860;2023-08-06T07:08:23;9.17;;;8.13;;
71288;SDS011;59068;52.502;9.860;2023-08-06T07:10:49;9.03;;;8.20;;
71288;SDS011;59068;52.502;9.860;2023-08-06T07:13:16;7.80;;;7.10;;
71288;SDS011;59068;52.502;9.860;2023-08-06T07:15:42;8.30;;;7.50;;
71288;SDS011;59068;52.502;9.860;2023-08-06T07:18:09;8.50;;;7.70;;
71288;SDS011;59068;52.502;9.860;2023-08-06T07:20:37;9.33;;;8.00;;
71288;SDS011;59068;52.502;9.860;2023-08-06T07:23:03;9.67;;;8.60;;
71288;SDS011;59068;52.502;9.860;2023-08-06T07:25:30;10.53;;;8.53;;
71288;SDS011;59068;52.502;9.860;2023-08-06T07:27:57;7.97;;;7.27;;
71288;SDS011;59068;52.502;9.860;2023-08-06T07:30:23;8.23;;;7.43;;
71288;SDS011;59068;52.502;9.860;2023-08-06T07:32:50;8.03;;;7.13;;
71288;SDS011;59068;52.502;9.860;2023-08-06T07:35:16;8.67;;;7.77;;
71288;SDS011;59068;52.502;9.860;2023-08-06T07:37:44;7.97;;;7.33;;
71288;SDS011;59068;52.502;9.860;2023-08-06T07:40:11;8.30;;;7.50;;
71288;SDS011;59068;52.502;9.860;2023-08-06T07:42:38;8.67;;;7.87;;
71288;SDS011;59068;52.502;9.860;2023-08-06T07:45:06;9.87;;;7.83;;
71288;SDS011;59068;52.502;9.860;2023-08-06T07:47:33;8.77;;;7.97;;
71288;SDS011;59068;52.502;9.860;2023-08-06T07:50:00;8.73;;;7.83;;
71288;SDS011;59068;52.502;9.860;2023-08-06T07:52:27;8.23;;;7.43;;
71288;SDS011;59068;52.502;9.860;2023-08-06T07:54:55;8.00;;;7.30;;
71288;SDS011;59068;52.502;9.860;2023-08-06T07:57:21;7.67;;;6.97;;
71288;SDS011;59068;52.502;9.860;2023-08-06T07:59:48;7.73;;;7.07;;
71288;SDS011;59068;52.502;9.860;2023-08-06T08:02:15;8.80;;;7.33;;
71288;SDS011;59068;52.502;9.860;2023-08-06T08:04:42;8.13;;;7.43;;
71288;SDS011;59068;52.502;9.860;2023-08-06T08:07:09;6.73;;;6.13;;
71288;SDS011;59068;52.502;9.860;2023-08-06T08:09:36;6.27;;;5.67;;
71288;SDS011;59068;52.502;9.860;2023-08-06T08:12:04;5.50;;;5.00;;
71288;SDS011;59068;52.502;9.860;2023-08-06T08:14:31;5.00;;;4.60;;
71288;SDS011;59068;52.502;9.860;2023-08-06T08:17:00;4.27;;;3.97;;
71288;SDS011;59068;52.502;9.860;2023-08-06T08:19:27;5.00;;;4.50;;
71288;SDS011;59068;52.502;9.860;2023-08-06T08:21:54;4.00;;;3.70;;
71288;SDS011;59068;52.502;9.860;2023-08-06T08:24:20;3.97;;;3.67;;
71288;SDS011;59068;52.502;9.860;2023-08-06T08:26:49;3.77;;;3.47;;
71288;SDS011;59068;52.502;9.860;2023-08-06T08:29:16;4.17;;;3.57;;
71288;SDS011;59068;52.502;9.860;2023-08-06T08:31:43;3.63;;;3.43;;
71288;SDS011;59068;52.502;9.860;2023-08-06T08:34:10;2.37;;;2.27;;
71288;SDS011;59068;52.502;9.860;2023-08-06T08:36:36;2.97;;;2.77;;
71288;SDS011;59068;52.502;9.860;2023-08-06T08:39:03;3.10;;;2.70;;
71288;SDS011;59068;52.502;9.860;2023-08-06T08:41:30;3.07;;;2.87;;
71288;SDS011;59068;52.502;9.860;2023-08-06T08:43:57;2.93;;;2.53;;
71288;SDS011;59068;52.502;9.860;2023-08-06T08:46:26;2.73;;;2.53;;
71288;SDS011;59068;52.502;9.860;2023-08-06T08:48:53;2.83;;;2.63;;
71288;SDS011;59068;52.502;9.860;2023-08-06T08:51:20;2.87;;;2.00;;
71288;SDS011;59068;52.502;9.860;2023-08-06T08:53:47;2.53;;;2.33;;
71288;SDS011;59068;52.502;9.860;2023-08-06T08:56:14;2.10;;;2.00;;
71288;SDS011;59068;52.502;9.860;2023-08-06T08:58:42;2.10;;;2.00;;
71288;SDS011;59068;52.502;9.860;2023-08-06T09:01:08;4.40;;;2.33;;
71288;SDS011;59068;52.502;9.860;2023-08-06T09:03:37;2.60;;;2.30;;
71288;SDS011;59068;52.502;9.860;2023-08-06T09:06:04;2.30;;;2.10;;
71288;SDS011;59068;52.502;9.860;2023-08-06T09:08:32;2.40;;;2.30;;
71288;SDS011;59068;52.502;9.860;2023-08-06T09:11:06;2.20;;;2.10;;
71288;SDS011;59068;52.502;9.860;2023-08-06T09:13:35;2.23;;;2.10;;
71288;SDS011;59068;52.502;9.860;2023-08-06T09:16:02;1.97;;;1.77;;
71288;SDS011;59068;52.502;9.860;2023-08-06T09:18:28;2.30;;;2.10;;
71288;SDS011;59068;52.502;9.860;2023-08-06T09:20:57;2.03;;;1.93;;
71288;SDS011;59068;52.502;9.860;2023-08-06T09:23:28;3.30;;;2.40;;
71288;SDS011;59068;52.502;9.860;2023-08-06T09:25:55;2.47;;;2.27;;
71288;SDS011;59068;52.502;9.860;2023-08-06T09:28:22;2.63;;;2.10;;
71288;SDS011;59068;52.502;9.860;2023-08-06T09:30:49;1.80;;;1.70;;
71288;SDS011;59068;52.502;9.860;2023-08-06T09:33:17;2.23;;;2.13;;
71288;SDS011;59068;52.502;9.860;2023-08-06T09:35:45;2.43;;;2.10;;
71288;SDS011;59068;52.502;9.860;2023-08-06T09:38:14;2.50;;;2.13;;
71288;SDS011;59068;52.502;9.860;2023-08-06T09:40:40;2.30;;;2.20;;
71288;SDS011;59068;52.502;9.860;2023-08-06T09:43:07;2.70;;;2.50;;
71288;SDS011;59068;52.502;9.860;2023-08-06T09:45:34;2.17;;;2.07;;
71288;SDS011;59068;52.502;9.860;2023-08-06T09:48:02;2.47;;;2.30;;
71288;SDS011;59068;52.502;9.860;2023-08-06T09:50:30;2.77;;;2.50;;
71288;SDS011;59068;52.502;9.860;2023-08-06T09:52:57;2.70;;;2.50;;
71288;SDS011;59068;52.502;9.860;2023-08-06T09:55:26;2.50;;;2.30;;
71288;SDS011;59068;52.502;9.860;2023-08-06T09:57:53;2.00;;;1.90;;
71288;SDS011;59068;52.502;9.860;2023-08-06T10:00:20;2.40;;;2.20;;
71288;SDS011;59068;52.502;9.860;2023-08-06T10:02:47;2.63;;;2.43;;
71288;SDS011;59068;52.502;9.860;2023-08-06T10:05:14;3.87;;;2.50;;
71288;SDS011;59068;52.502;9.860;2023-08-06T10:07:42;2.50;;;2.30;;
71288;SDS011;59068;52.502;9.860;2023-08-06T10:10:10;3.63;;;2.10;;
71288;SDS011;59068;52.502;9.860;2023-08-06T10:12:38;2.77;;;2.40;;
71288;SDS011;59068;52.502;9.860;2023-08-06T10:15:08;2.47;;;2.27;;
71288;SDS011;59068;52.502;9.860;2023-08-06T10:17:36;2.43;;;2.33;;
71288;SDS011;59068;52.502;9.860;2023-08-06T10:20:03;2.23;;;2.13;;
71288;SDS011;59068;52.502;9.860;2023-08-06T10:22:32;2.53;;;2.33;;
71288;SDS011;59068;52.502;9.860;2023-08-06T10:25:00;2.23;;;2.00;;
71288;SDS011;59068;52.502;9.860;2023-08-06T10:27:30;2.50;;;2.30;;
71288;SDS011;59068;52.502;9.860;2023-08-06T10:32:49;2.43;;;2.30;;
71288;SDS011;59068;52.502;9.860;2023-08-06T10:35:34;2.60;;;2.40;;
71288;SDS011;59068;52.502;9.860;2023-08-06T10:38:07;2.20;;;2.00;;
71288;SDS011;59068;52.502;9.860;2023-08-06T10:40:35;2.03;;;1.83;;
71288;SDS011;59068;52.502;9.860;2023-08-06T10:43:02;1.93;;;1.80;;
71288;SDS011;59068;52.502;9.860;2023-08-06T10:45:31;2.27;;;2.07;;
71288;SDS011;59068;52.502;9.860;2023-08-06T10:48:01;2.00;;;1.83;;
71288;SDS011;59068;52.502;9.860;2023-08-06T10:50:27;2.20;;;1.80;;
71288;SDS011;59068;52.502;9.860;2023-08-06T10:52:54;2.33;;;1.70;;
71288;SDS011;59068;52.502;9.860;2023-08-06T10:55:22;2.20;;;2.10;;
71288;SDS011;59068;52.502;9.860;2023-08-06T10:57:50;2.17;;;1.87;;
71288;SDS011;59068;52.502;9.860;2023-08-06T11:00:16;2.07;;;1.87;;
71288;SDS011;59068;52.502;9.860;2023-08-06T11:02:45;3.40;;;1.80;;
71288;SDS011;59068;52.502;9.860;2023-08-06T11:05:13;1.73;;;1.60;;
71288;SDS011;59068;52.502;9.860;2023-08-06T11:07:39;3.17;;;1.70;;
71288;SDS011;59068;52.502;9.860;2023-08-06T11:10:08;1.70;;;1.60;;
71288;SDS011;59068;52.502;9.860;2023-08-06T11:12:36;1.83;;;1.73;;
71288;SDS011;59068;52.502;9.860;2023-08-06T11:15:03;1.40;;;1.30;;
71288;SDS011;59068;52.502;9.860;2023-08-06T11:17:31;1.83;;;1.70;;
71288;SDS011;59068;52.502;9.860;2023-08-06T11:20:00;1.93;;;1.80;;
71288;SDS011;59068;52.502;9.860;2023-08-06T11:22:27;2.40;;;2.20;;
71288;SDS011;59068;52.502;9.860;2023-08-06T11:24:54;2.07;;;1.97;;
71288;SDS011;59068;52.502;9.860;2023-08-06T11:27:21;2.37;;;1.80;;
71288;SDS011;59068;52.502;9.860;2023-08-06T11:29:47;1.87;;;1.67;;
71288;SDS011;59068;52.502;9.860;2023-08-06T11:32:14;1.70;;;1.60;;
71288;SDS011;59068;52.502;9.860;2023-08-06T11:34:41;2.40;;;1.77;;
71288;SDS011;59068;52.502;9.860;2023-08-06T11:37:10;1.57;;;1.47;;
71288;SDS011;59068;52.502;9.860;2023-08-06T11:39:37;2.03;;;1.90;;
71288;SDS011;59068;52.502;9.860;2023-08-06T11:42:05;2.07;;;1.73;;
71288;SDS011;59068;52.502;9.860;2023-08-06T11:44:32;1.70;;;1.60;;
71288;SDS011;59068;52.502;9.860;2023-08-06T11:47:01;1.93;;;1.80;;
71288;SDS011;59068;52.502;9.860;2023-08-06T11:52:19;2.20;;;1.90;;
71288;SDS011;59068;52.502;9.860;2023-08-06T11:54:48;1.50;;;1.40;;
71288;SDS011;59068;52.502;9.860;2023-08-06T11:57:26;2.13;;;1.60;;
71288;SDS011;59068;52.502;9.860;2023-08-06T11:59:53;1.80;;;1.27;;
71288;SDS011;59068;52.502;9.860;2023-08-06T12:02:20;1.47;;;1.33;;
71288;SDS011;59068;52.502;9.860;2023-08-06T12:04:58;2.13;;;2.03;;
71288;SDS011;59068;52.502;9.860;2023-08-06T12:07:31;2.00;;;1.80;;
71288;SDS011;59068;52.502;9.860;2023-08-06T12:09:58;2.10;;;1.90;;
71288;SDS011;59068;52.502;9.860;2023-08-06T12:12:25;1.80;;;1.57;;
71288;SDS011;59068;52.502;9.860;2023-08-06T12:14:52;1.70;;;1.60;;
71288;SDS011;59068;52.502;9.860;2023-08-06T12:17:18;1.97;;;1.87;;
71288;SDS011;59068;52.502;9.860;2023-08-06T12:19:45;1.47;;;1.37;;
71288;SDS011;59068;52.502;9.860;2023-08-06T12:22:13;1.77;;;1.40;;
71288;SDS011;59068;52.502;9.860;2023-08-06T12:24:41;1.53;;;1.43;;
71288;SDS011;59068;52.502;9.860;2023-08-06T12:27:08;2.80;;;1.80;;
71288;SDS011;59068;52.502;9.860;2023-08-06T12:29:34;2.23;;;1.60;;
71288;SDS011;59068;52.502;9.860;2023-08-06T12:32:01;1.63;;;1.53;;
71288;SDS011;59068;52.502;9.860;2023-08-06T12:34:29;1.87;;;1.67;;
71288;SDS011;59068;52.502;9.860;2023-08-06T12:36:55;1.63;;;1.53;;
71288;SDS011;59068;52.502;9.860;2023-08-06T12:39:22;1.70;;;1.50;;
71288;SDS011;59068;52.502;9.860;2023-08-06T12:41:50;2.87;;;1.63;;
71288;SDS011;59068;52.502;9.860;2023-08-06T12:44:17;1.83;;;1.73;;
71288;SDS011;59068;52.502;9.860;2023-08-06T12:46:43;2.30;;;1.70;;
71288;SDS011;59068;52.502;9.860;2023-08-06T12:49:10;1.80;;;1.70;;
71288;SDS011;59068;52.502;9.860;2023-08-06T12:51:36;1.77;;;1.67;;
71288;SDS011;59068;52.502;9.860;2023-08-06T12:54:03;1.93;;;1.83;;
71288;SDS011;59068;52.502;9.860;2023-08-06T12:56:30;2.30;;;2.10;;
71288;SDS011;59068;52.502;9.860;2023-08-06T12:58:58;2.20;;;2.03;;
71288;SDS011;59068;52.502;9.860;2023-08-06T13:01:24;1.87;;;1.70;;
71288;SDS011;59068;52.502;9.860;2023-08-06T13:03:51;3.13;;;1.90;;
71288;SDS011;59068;52.502;9.860;2023-08-06T13:06:17;1.97;;;1.77;;
71288;SDS011;59068;52.502;9.860;2023-08-06T13:08:44;1.27;;;1.27;;
71288;SDS011;59068;52.502;9.860;2023-08-06T13:11:11;2.03;;;1.93;;
71288;SDS011;59068;52.502;9.860;2023-08-06T13:13:37;2.60;;;1.50;;
71288;SDS011;59068;52.502;9.860;2023-08-06T13:16:06;1.20;;;1.17;;
71288;SDS011;59068;52.502;9.860;2023-08-06T13:18:32;1.57;;;1.47;;
71288;SDS011;59068;52.502;9.860;2023-08-06T13:20:59;1.87;;;1.70;;
71288;SDS011;59068;52.502;9.860;2023-08-06T13:23:25;1.50;;;1.40;;
71288;SDS011;59068;52.502;9.860;2023-08-06T13:25:52;1.70;;;1.60;;
71288;SDS011;59068;52.502;9.860;2023-08-06T13:28:19;1.40;;;1.30;;
71288;SDS011;59068;52.502;9.860;2023-08-06T13:30:46;1.27;;;1.23;;
71288;SDS011;59068;52.502;9.860;2023-08-06T13:33:14;1.37;;;1.27;;
71288;SDS011;59068;52.502;9.860;2023-08-06T13:35:40;1.20;;;1.20;;
71288;SDS011;59068;52.502;9.860;2023-08-06T13:38:08;1.47;;;1.37;;
71288;SDS011;59068;52.502;9.860;2023-08-06T13:40:34;2.40;;;1.30;;
71288;SDS011;59068;52.502;9.860;2023-08-06T13:43:01;1.40;;;1.23;;
71288;SDS011;59068;52.502;9.860;2023-08-06T13:45:28;1.10;;;1.10;;
71288;SDS011;59068;52.502;9.860;2023-08-06T13:47:56;1.40;;;1.30;;
71288;SDS011;59068;52.502;9.860;2023-08-06T13:50:24;1.10;;;1.10;;
71288;SDS011;59068;52.502;9.860;2023-08-06T13:52:51;1.30;;;1.20;;
71288;SDS011;59068;52.502;9.860;2023-08-06T13:55:20;1.20;;;1.20;;
71288;SDS011;59068;52.502;9.860;2023-08-06T13:57:47;1.30;;;1.20;;
71288;SDS011;59068;52.502;9.860;2023-08-06T14:07:33;1.53;;;1.30;;
71288;SDS011;59068;52.502;9.860;2023-08-06T14:10:09;1.10;;;1.10;;
71288;SDS011;59068;52.502;9.860;2023-08-06T14:12:36;1.30;;;1.20;;
71288;SDS011;59068;52.502;9.860;2023-08-06T14:15:03;1.97;;;1.80;;
71288;SDS011;59068;52.502;9.860;2023-08-06T14:17:29;1.40;;;1.17;;
71288;SDS011;59068;52.502;9.860;2023-08-06T14:19:56;1.37;;;1.27;;
71288;SDS011;59068;52.502;9.860;2023-08-06T14:22:23;1.73;;;1.33;;
71288;SDS011;59068;52.502;9.860;2023-08-06T14:24:51;2.27;;;1.00;;
71288;SDS011;59068;52.502;9.860;2023-08-06T14:27:18;1.00;;;1.00;;
71288;SDS011;59068;52.502;9.860;2023-08-06T14:29:44;0.70;;;0.70;;
71288;SDS011;59068;52.502;9.860;2023-08-06T14:32:11;1.13;;;1.00;;
71288;SDS011;59068;52.502;9.860;2023-08-06T14:34:38;1.80;;;1.20;;
71288;SDS011;59068;52.502;9.860;2023-08-06T14:37:04;1.30;;;1.20;;
71288;SDS011;59068;52.502;9.860;2023-08-06T14:39:31;1.83;;;1.30;;
71288;SDS011;59068;52.502;9.860;2023-08-06T14:41:59;0.90;;;0.90;;
71288;SDS011;59068;52.502;9.860;2023-08-06T14:44:25;1.50;;;1.20;;
71288;SDS011;59068;52.502;9.860;2023-08-06T14:46:52;1.20;;;1.10;;
71288;SDS011;59068;52.502;9.860;2023-08-06T14:49:19;1.07;;;1.00;;
71288;SDS011;59068;52.502;9.860;2023-08-06T14:51:45;1.27;;;1.17;;
71288;SDS011;59068;52.502;9.860;2023-08-06T14:54:12;1.40;;;1.30;;
71288;SDS011;59068;52.502;9.860;2023-08-06T14:56:39;1.10;;;1.10;;
71288;SDS011;59068;52.502;9.860;2023-08-06T14:59:07;1.50;;;1.30;;